Pony, Texas
Current Conditions -  °F | °C
As of 12:35 AM on Thursday 27 Nov 2014 (Local Time) from KCOM Reporting Station
Clear Clear  
Wind Chill: 43°   Ceiling: Unl
Heat Index: 43°   Visibility: 10mi
Dew Point: 37°   Wind: 3mph
Humidity: 78%   Direction: 350°N
Pressure: 30.4"   Gusts: NA
Location:  31.7639°N, 99.8991°W
Report Text: KCOM 270635Z AUTO 35003KT 10SM CLR 06/03 A3040 RMK AO2 T00600025
Loading
Personal Weather Stations






























Interactive Weather Map New forecast layout! Learn more

10-Day Weather Forecast

Advertisements
Track Severe Weather on mobile